Time;durP1;ratioP1;P1;durP2;ratioP2;P2;SDS_P1;SDS_P2;PMS_P1;PMS_P2;Temp;Humidity;BMP_temperature;BMP_pressure;BME280_temperature;BME280_humidity;BME280_pressure;Samples;Min_cycle;Max_cycle;Signal;HPM_P1;HPM_P2
2022/10/19 00:01:35;;;;;;;19.60;7.03;;;11.70;99.90;;;;;;4088656;29;20247;-91
2022/10/19 00:03:36;;;;;;;22.45;6.60;;;11.60;99.90;;;;;;4089560;29;20267;-91
2022/10/19 00:05:37;;;;;;;16.45;6.70;;;11.60;99.90;;;;;;4089560;29;20179;-91
2022/10/19 00:07:38;;;;;;;20.42;7.05;;;11.60;99.90;;;;;;4087605;28;20778;-91
2022/10/19 00:09:39;;;;;;;18.17;6.97;;;11.60;99.90;;;;;;4086304;29;20168;-91
2022/10/19 00:11:43;;;;;;;20.00;7.50;;;11.60;99.90;;;;;;4086328;29;20307;-91
2022/10/19 00:13:43;;;;;;;20.40;6.77;;;11.60;99.90;;;;;;4101888;28;20183;-92
2022/10/19 00:15:45;;;;;;;26.90;7.50;;;11.60;99.90;;;;;;4118010;28;20265;-91
2022/10/19 00:17:45;;;;;;;17.80;7.47;;;11.70;99.90;;;;;;4086231;29;20676;-91
2022/10/19 00:19:46;;;;;;;20.63;6.93;;;11.70;99.90;;;;;;4101178;28;20170;-92
2022/10/19 00:21:47;;;;;;;25.67;6.57;;;11.70;99.90;;;;;;4085975;29;20199;-91
2022/10/19 00:23:48;;;;;;;23.98;7.18;;;11.80;99.90;;;;;;4101771;29;20215;-92
2022/10/19 00:25:55;;;;;;;16.27;6.73;;;11.90;99.90;;;;;;4085845;29;20183;-92
2022/10/19 00:27:56;;;;;;;21.98;7.78;;;11.90;99.90;;;;;;4085698;29;20218;-91
2022/10/19 00:29:57;;;;;;;21.57;6.93;;;11.90;99.90;;;;;;4102017;29;20638;-90
2022/10/19 00:31:57;;;;;;;20.87;6.73;;;11.90;99.90;;;;;;4085835;29;20206;-91
2022/10/19 00:33:58;;;;;;;21.23;7.23;;;11.90;99.90;;;;;;4085785;29;20598;-91
2022/10/19 00:35:59;;;;;;;19.20;7.13;;;11.90;99.90;;;;;;4085787;29;20238;-91
2022/10/19 00:38:00;;;;;;;13.82;6.22;;;12.00;99.90;;;;;;4085687;28;20199;-92
2022/10/19 00:40:00;;;;;;;19.80;6.83;;;12.10;99.90;;;;;;4085669;29;20645;-91
2022/10/19 00:42:01;;;;;;;17.00;6.23;;;12.10;99.90;;;;;;4085737;29;20229;-91
2022/10/19 00:44:12;;;;;;;25.77;6.72;;;12.10;99.90;;;;;;4085540;29;20183;-90
2022/10/19 00:46:13;;;;;;;20.85;6.88;;;12.10;99.90;;;;;;4101609;28;20643;-91
2022/10/19 00:48:18;;;;;;;16.27;6.47;;;12.00;99.90;;;;;;4085599;29;20211;-90
2022/10/19 00:50:19;;;;;;;18.57;6.00;;;11.90;99.90;;;;;;4085720;29;20255;-92
2022/10/19 00:52:22;;;;;;;15.20;5.88;;;11.80;99.90;;;;;;4085805;29;20179;-91
2022/10/19 00:54:24;;;;;;;21.38;6.40;;;11.70;99.90;;;;;;4085695;29;20175;-90
2022/10/19 00:56:24;;;;;;;19.90;6.77;;;11.70;99.90;;;;;;4085714;29;20175;-90
2022/10/19 00:58:26;;;;;;;20.42;6.78;;;11.70;99.90;;;;;;4101387;29;20170;-91
2022/10/19 01:00:27;;;;;;;16.90;5.87;;;11.60;99.90;;;;;;4085547;29;20274;-91
2022/10/19 01:02:28;;;;;;;16.87;6.27;;;11.60;99.90;;;;;;4085595;29;20182;-90
2022/10/19 01:04:31;;;;;;;23.43;6.90;;;11.60;99.90;;;;;;4085489;29;20187;-90
2022/10/19 01:06:32;;;;;;;16.77;5.90;;;11.60;99.90;;;;;;4101405;28;20175;-91
2022/10/19 01:08:33;;;;;;;16.90;6.30;;;11.50;99.90;;;;;;4101228;29;20210;-92
2022/10/19 01:10:50;;;;;;;19.67;5.93;;;11.50;99.90;;;;;;4085186;29;20254;-91
2022/10/19 01:13:06;;;;;;;24.37;5.70;;;11.40;99.90;;;;;;4085045;29;20190;-91
2022/10/19 01:15:31;;;;;;;17.08;6.22;;;11.40;99.90;;;;;;4085075;29;20184;-92
2022/10/19 01:18:03;;;;;;;19.00;6.40;;;11.40;99.90;;;;;;4101080;28;20182;-90
2022/10/19 01:20:25;;;;;;;21.67;5.87;;;11.30;99.90;;;;;;4085127;29;20190;-91
2022/10/19 01:22:43;;;;;;;23.00;5.97;;;11.30;99.90;;;;;;4085011;29;20175;-90
2022/10/19 01:24:54;;;;;;;14.10;5.73;;;11.30;99.90;;;;;;4085126;29;20188;-89
2022/10/19 01:27:23;;;;;;;23.67;6.27;;;11.30;99.90;;;;;;4084905;29;20187;-92
2022/10/19 01:29:54;;;;;;;19.90;5.53;;;11.30;99.90;;;;;;4085168;29;20665;-90
2022/10/19 01:32:38;;;;;;;23.40;6.13;;;11.30;99.90;;;;;;4084335;29;20208;-90
2022/10/19 01:35:10;;;;;;;16.83;5.67;;;11.30;99.90;;;;;;4046654;29;20209;-90
2022/10/19 01:37:43;;;;;;;14.35;5.30;;;11.20;99.90;;;;;;4084686;29;20180;-90
2022/10/19 01:39:58;;;;;;;17.57;5.53;;;11.20;99.90;;;;;;4084850;29;20182;-91
2022/10/19 01:42:28;;;;;;;15.83;5.90;;;11.20;99.90;;;;;;4100499;28;20225;-90
2022/10/19 01:44:39;;;;;;;20.27;5.90;;;11.30;99.90;;;;;;4084734;29;20175;-90
2022/10/19 01:46:43;;;;;;;26.33;5.80;;;11.30;99.90;;;;;;4100587;29;20179;-91
2022/10/19 01:48:53;;;;;;;18.17;5.43;;;11.30;99.90;;;;;;4084773;29;20246;-91
2022/10/19 01:51:00;;;;;;;18.23;5.33;;;11.30;99.90;;;;;;4084875;29;20687;-90
2022/10/19 01:53:03;;;;;;;19.93;5.83;;;11.30;99.90;;;;;;4084620;29;20178;-92
2022/10/19 01:55:04;;;;;;;18.00;5.67;;;11.20;99.90;;;;;;4084805;29;20202;-91
2022/10/19 01:57:08;;;;;;;29.20;6.97;;;11.20;99.90;;;;;;4084886;29;20172;-90
2022/10/19 01:59:11;;;;;;;20.33;5.78;;;11.10;99.90;;;;;;4084808;29;20227;-91
2022/10/19 02:01:15;;;;;;;25.23;6.27;;;11.10;99.90;;;;;;4084634;29;20286;-92
2022/10/19 02:03:17;;;;;;;17.37;6.00;;;11.00;99.90;;;;;;4084381;28;20174;-91
2022/10/19 02:05:22;;;;;;;18.77;5.30;;;11.00;99.90;;;;;;4084635;29;20185;-91
2022/10/19 02:07:24;;;;;;;14.00;6.20;;;11.00;99.90;;;;;;4084343;29;20219;-91
2022/10/19 02:09:25;;;;;;;28.07;6.73;;;11.00;99.90;;;;;;4084546;29;20172;-91
2022/10/19 02:11:26;;;;;;;20.57;6.43;;;11.00;99.90;;;;;;4084462;29;20274;-91
2022/10/19 02:13:29;;;;;;;16.63;5.60;;;11.00;99.90;;;;;;4084291;29;20180;-89
2022/10/19 02:15:33;;;;;;;29.23;6.53;;;11.00;99.90;;;;;;4084470;29;20180;-91
2022/10/19 02:17:40;;;;;;;16.37;5.67;;;11.00;99.90;;;;;;4084333;29;20184;-92
2022/10/19 02:19:41;;;;;;;21.47;6.70;;;11.00;99.90;;;;;;4084345;29;20667;-90
2022/10/19 02:21:42;;;;;;;20.20;6.33;;;11.00;99.90;;;;;;4100170;28;20738;-92
2022/10/19 02:23:43;;;;;;;18.03;6.13;;;10.90;99.90;;;;;;4100066;28;20175;-91
2022/10/19 02:25:44;;;;;;;17.57;6.30;;;10.90;99.90;;;;;;4084091;29;20243;-91
2022/10/19 02:27:44;;;;;;;20.03;7.00;;;10.90;99.90;;;;;;4099855;29;20301;-90
2022/10/19 02:29:45;;;;;;;16.10;5.87;;;10.90;99.90;;;;;;4084467;29;20175;-91
2022/10/19 02:31:46;;;;;;;19.87;6.27;;;10.90;99.90;;;;;;4084168;29;20200;-90
2022/10/19 02:33:47;;;;;;;23.07;7.57;;;10.90;99.90;;;;;;4084184;29;20215;-91
2022/10/19 02:35:48;;;;;;;19.23;6.27;;;10.90;99.90;;;;;;4100110;29;20171;-91
2022/10/19 02:37:49;;;;;;;20.57;7.07;;;10.90;99.90;;;;;;4084105;29;20175;-91
2022/10/19 02:39:50;;;;;;;19.90;7.10;;;10.90;99.90;;;;;;4084314;29;20180;-92
2022/10/19 02:41:59;;;;;;;20.37;6.77;;;10.90;99.90;;;;;;4100646;28;20213;-92
2022/10/19 02:44:08;;;;;;;21.00;6.50;;;10.90;99.90;;;;;;4087705;29;20661;-91
2022/10/19 02:46:24;;;;;;;24.27;7.00;;;11.00;99.90;;;;;;4087872;29;20596;-90
2022/10/19 02:48:29;;;;;;;20.73;6.80;;;11.00;99.90;;;;;;4087493;29;20239;-91
2022/10/19 02:50:30;;;;;;;19.07;6.37;;;10.90;99.90;;;;;;4087204;29;20172;-91
2022/10/19 02:52:31;;;;;;;22.63;6.63;;;11.00;99.90;;;;;;4087503;29;20175;-91
2022/10/19 02:54:32;;;;;;;22.60;6.23;;;11.10;99.90;;;;;;4087254;29;20673;-91
2022/10/19 02:56:34;;;;;;;17.57;6.23;;;11.10;99.90;;;;;;4087291;29;20186;-91
2022/10/19 02:58:34;;;;;;;22.77;6.53;;;11.10;99.90;;;;;;4087205;29;20183;-91
2022/10/19 03:00:35;;;;;;;24.30;6.80;;;11.10;99.90;;;;;;4087164;29;20199;-92
2022/10/19 03:02:36;;;;;;;17.80;6.53;;;11.20;99.90;;;;;;4103041;29;20209;-90
2022/10/19 03:05:03;;;;;;;22.60;6.63;;;11.10;99.90;;;;;;4103635;29;20190;-91
2022/10/19 03:07:03;;;;;;;25.13;6.83;;;11.10;99.90;;;;;;4087259;29;20262;-91
2022/10/19 03:09:06;;;;;;;25.80;7.47;;;11.10;99.90;;;;;;4102936;29;20179;-91
2022/10/19 03:11:07;;;;;;;20.47;6.83;;;11.10;99.90;;;;;;4087037;29;20663;-92
2022/10/19 03:13:07;;;;;;;15.43;6.67;;;11.10;99.90;;;;;;4102715;29;20174;-91
2022/10/19 03:15:10;;;;;;;21.93;6.53;;;11.00;99.90;;;;;;4087056;29;20178;-90
2022/10/19 03:17:10;;;;;;;22.67;6.97;;;11.00;99.90;;;;;;4087362;29;20584;-91
2022/10/19 03:19:11;;;;;;;16.95;6.57;;;11.00;99.90;;;;;;4087105;29;20184;-91
2022/10/19 03:21:12;;;;;;;20.10;6.50;;;11.10;99.90;;;;;;4102824;28;20623;-91
2022/10/19 03:23:13;;;;;;;28.65;7.15;;;11.10;99.90;;;;;;4086861;29;20275;-90
2022/10/19 03:25:14;;;;;;;15.80;6.50;;;11.00;99.90;;;;;;4087005;29;20207;-91
2022/10/19 03:27:15;;;;;;;22.43;7.07;;;11.10;99.90;;;;;;4102612;28;20217;-91
2022/10/19 03:29:15;;;;;;;23.07;7.60;;;11.10;99.90;;;;;;4087099;29;20210;-91
2022/10/19 03:31:16;;;;;;;21.67;7.00;;;11.10;99.90;;;;;;4102729;28;20194;-91
2022/10/19 03:33:17;;;;;;;17.43;6.57;;;11.20;99.90;;;;;;4102624;28;20651;-90
2022/10/19 03:35:18;;;;;;;24.47;7.50;;;11.10;99.90;;;;;;4102702;29;20718;-91
2022/10/19 03:37:18;;;;;;;19.23;7.37;;;11.10;99.90;;;;;;4086630;29;20191;-91
2022/10/19 03:39:19;;;;;;;15.47;6.90;;;11.10;99.90;;;;;;4086886;28;20174;-91
2022/10/19 03:41:22;;;;;;;19.40;7.40;;;11.10;99.90;;;;;;4086426;29;20219;-89
2022/10/19 03:43:22;;;;;;;25.47;8.33;;;11.00;99.90;;;;;;4086746;29;20190;-90
2022/10/19 03:45:23;;;;;;;24.73;7.77;;;11.00;99.90;;;;;;4102667;29;20194;-91
2022/10/19 03:47:24;;;;;;;17.80;6.87;;;11.00;99.90;;;;;;4086490;29;20222;-90
2022/10/19 03:49:24;;;;;;;30.20;8.20;;;10.90;99.90;;;;;;4086383;29;20183;-91
2022/10/19 03:51:27;;;;;;;25.50;8.17;;;11.00;99.90;;;;;;4086461;29;20199;-90
2022/10/19 03:53:30;;;;;;;20.30;7.50;;;11.00;99.90;;;;;;4085843;29;20651;-92
2022/10/19 03:55:31;;;;;;;25.00;8.53;;;11.00;99.90;;;;;;4086534;29;20210;-91
2022/10/19 03:57:31;;;;;;;24.13;8.13;;;11.00;99.90;;;;;;4102114;29;20179;-91
2022/10/19 03:59:32;;;;;;;22.67;7.97;;;11.00;99.90;;;;;;4086437;29;20190;-91
2022/10/19 04:01:39;;;;;;;22.73;8.90;;;11.10;99.90;;;;;;4102136;28;20560;-90
2022/10/19 04:03:40;;;;;;;24.58;8.45;;;11.10;99.90;;;;;;4086598;29;20175;-90
2022/10/19 04:05:40;;;;;;;26.80;9.03;;;11.20;99.90;;;;;;4102313;28;20179;-91
2022/10/19 04:07:41;;;;;;;23.23;8.83;;;11.10;99.90;;;;;;4086399;29;20730;-91
2022/10/19 04:09:42;;;;;;;17.23;8.67;;;10.90;99.90;;;;;;4102211;29;20183;-92
2022/10/19 04:11:43;;;;;;;17.53;8.73;;;11.00;99.90;;;;;;4086288;29;20557;-91
2022/10/19 04:13:46;;;;;;;19.47;8.57;;;11.00;99.90;;;;;;4085883;29;20182;-91
2022/10/19 04:15:47;;;;;;;31.33;9.60;;;10.90;99.90;;;;;;4102178;29;20233;-91
2022/10/19 04:17:47;;;;;;;33.50;10.17;;;10.90;99.90;;;;;;4086059;28;20179;-92
2022/10/19 04:19:48;;;;;;;31.57;10.07;;;10.80;99.90;;;;;;4086395;29;20187;-91
2022/10/19 04:21:49;;;;;;;29.07;9.30;;;11.00;99.90;;;;;;4086164;29;20251;-90
2022/10/19 04:23:51;;;;;;;23.03;10.13;;;11.00;99.90;;;;;;4086276;29;20270;-91
2022/10/19 04:25:57;;;;;;;30.00;10.07;;;10.90;99.90;;;;;;4102593;29;20554;-91
2022/10/19 04:27:58;;;;;;;29.73;10.77;;;11.00;99.90;;;;;;4086013;29;20211;-90
2022/10/19 04:29:59;;;;;;;21.63;9.93;;;11.00;99.90;;;;;;4102094;29;20179;-92
2022/10/19 04:31:59;;;;;;;28.33;10.93;;;10.90;99.90;;;;;;4086086;29;20278;-92
2022/10/19 04:34:00;;;;;;;35.63;10.73;;;10.80;99.90;;;;;;4101619;29;20183;-90
2022/10/19 04:36:03;;;;;;;36.10;11.93;;;10.70;99.90;;;;;;4086046;29;20578;-89
2022/10/19 04:38:04;;;;;;;29.97;11.80;;;10.70;99.90;;;;;;4101836;28;20257;-90
2022/10/19 04:40:05;;;;;;;36.53;12.00;;;10.70;99.90;;;;;;4101663;29;20173;-91
2022/10/19 04:42:06;;;;;;;32.63;11.90;;;10.70;99.90;;;;;;4085758;29;20215;-90
2022/10/19 04:44:08;;;;;;;28.73;11.27;;;10.70;99.90;;;;;;4086037;29;20180;-92
2022/10/19 04:46:19;;;;;;;31.83;11.73;;;10.80;99.90;;;;;;4085600;28;20213;-91
2022/10/19 04:48:20;;;;;;;29.87;11.47;;;10.70;99.90;;;;;;4085835;29;20215;-92
2022/10/19 04:50:22;;;;;;;33.40;13.47;;;10.60;99.90;;;;;;4085820;29;20210;-91
2022/10/19 04:52:30;;;;;;;28.40;12.90;;;10.70;99.90;;;;;;4086595;29;20655;-90
2022/10/19 04:54:30;;;;;;;28.43;12.50;;;10.60;99.90;;;;;;4101536;29;20611;-93
2022/10/19 04:56:31;;;;;;;29.30;11.87;;;10.60;99.90;;;;;;4085561;29;20175;-91
2022/10/19 04:58:32;;;;;;;36.57;13.27;;;10.60;99.90;;;;;;4085569;29;20231;-91
2022/10/19 05:00:33;;;;;;;29.40;13.20;;;10.60;99.90;;;;;;4101341;28;20247;-91
2022/10/19 05:02:34;;;;;;;39.00;14.47;;;10.50;99.90;;;;;;4101438;28;20179;-90
2022/10/19 05:04:34;;;;;;;39.50;13.73;;;10.50;99.90;;;;;;4085729;29;20179;-91
2022/10/19 05:06:35;;;;;;;30.53;12.90;;;10.50;99.90;;;;;;4085472;29;20182;-91
2022/10/19 05:08:37;;;;;;;24.13;12.60;;;10.50;99.90;;;;;;4085517;29;20235;-91
2022/10/19 05:10:37;;;;;;;28.40;12.83;;;10.50;99.90;;;;;;4085430;28;20267;-91
2022/10/19 05:12:38;;;;;;;33.87;14.23;;;10.50;99.90;;;;;;4085107;28;20664;-92
2022/10/19 05:14:39;;;;;;;32.53;13.47;;;10.50;99.90;;;;;;4085127;29;20274;-91
2022/10/19 05:16:40;;;;;;;30.33;13.90;;;10.50;99.90;;;;;;4101278;28;20605;-91
2022/10/19 05:18:40;;;;;;;36.07;13.90;;;10.40;99.90;;;;;;4085234;29;20645;-90
2022/10/19 05:20:41;;;;;;;44.13;14.67;;;10.40;99.90;;;;;;4085394;29;20195;-90
2022/10/19 05:22:42;;;;;;;34.27;13.20;;;10.50;99.90;;;;;;4085203;29;20657;-91
2022/10/19 05:24:42;;;;;;;34.37;13.97;;;10.50;99.90;;;;;;4085159;29;20211;-91
2022/10/19 05:26:43;;;;;;;25.17;12.37;;;10.50;99.90;;;;;;4100811;28;20604;-91
2022/10/19 05:28:48;;;;;;;26.43;13.97;;;10.40;99.90;;;;;;4085178;29;20221;-91
2022/10/19 05:30:49;;;;;;;34.57;14.23;;;10.40;99.90;;;;;;4084904;28;20258;-92
2022/10/19 05:32:49;;;;;;;39.97;14.30;;;10.40;99.90;;;;;;4100954;29;20183;-91
2022/10/19 05:34:50;;;;;;;35.93;14.50;;;10.40;99.90;;;;;;4085022;29;20171;-91
2022/10/19 05:36:53;;;;;;;43.87;13.87;;;10.50;99.90;;;;;;4084978;29;20723;-91
2022/10/19 05:38:56;;;;;;;34.80;14.50;;;10.50;99.90;;;;;;4100834;29;20175;-91
2022/10/19 05:40:57;;;;;;;36.03;13.63;;;10.50;99.90;;;;;;4100595;28;20198;-91
2022/10/19 05:42:57;;;;;;;34.93;13.63;;;10.60;99.90;;;;;;4100667;29;20190;-91
2022/10/19 05:44:58;;;;;;;32.73;14.17;;;10.40;99.90;;;;;;4084885;29;20195;-92
2022/10/19 05:46:59;;;;;;;32.13;12.17;;;10.40;99.90;;;;;;4084892;29;20175;-92
2022/10/19 05:49:00;;;;;;;39.10;13.13;;;10.40;99.90;;;;;;4084851;28;20251;-91
2022/10/19 05:51:04;;;;;;;37.37;12.67;;;10.40;99.90;;;;;;4100465;28;20194;-91
2022/10/19 05:53:04;;;;;;;30.37;12.33;;;10.40;99.90;;;;;;4084565;28;20246;-90
2022/10/19 05:55:06;;;;;;;24.33;11.60;;;10.40;99.90;;;;;;4100490;29;20179;-90
2022/10/19 05:57:06;;;;;;;24.27;10.37;;;10.40;99.90;;;;;;4084604;29;20175;-91
2022/10/19 05:59:09;;;;;;;31.77;11.37;;;10.20;99.90;;;;;;4100212;29;20198;-91
2022/10/19 06:01:10;;;;;;;22.55;11.05;;;10.30;99.90;;;;;;4084473;29;20199;-91
2022/10/19 06:03:11;;;;;;;26.25;11.38;;;10.40;99.90;;;;;;4084784;29;20171;-91
2022/10/19 06:05:12;;;;;;;35.60;12.03;;;10.20;99.90;;;;;;4084654;29;20269;-90
2022/10/19 06:07:12;;;;;;;29.63;10.80;;;10.30;99.90;;;;;;4085201;28;20620;-91
2022/10/19 06:09:13;;;;;;;24.27;11.17;;;10.30;99.90;;;;;;4100360;28;20175;-91
2022/10/19 06:11:20;;;;;;;34.63;11.20;;;10.30;99.90;;;;;;4084727;29;20198;-90
2022/10/19 06:13:20;;;;;;;27.17;10.73;;;10.50;99.90;;;;;;4084638;29;20179;-91
2022/10/19 06:15:21;;;;;;;26.40;10.57;;;10.70;99.90;;;;;;4100490;29;20175;-91
2022/10/19 06:17:22;;;;;;;25.33;11.30;;;10.70;99.90;;;;;;4084294;29;20715;-92
2022/10/19 06:19:22;;;;;;;32.47;11.23;;;10.70;99.90;;;;;;4100639;29;20210;-91
2022/10/19 06:21:26;;;;;;;29.33;11.13;;;10.50;99.90;;;;;;4084537;29;20202;-91
2022/10/19 06:23:26;;;;;;;27.47;11.50;;;10.50;99.90;;;;;;4084578;28;20176;-91
2022/10/19 06:25:29;;;;;;;32.90;11.40;;;10.70;99.90;;;;;;4100736;29;20726;-94
2022/10/19 06:27:30;;;;;;;30.60;11.90;;;10.70;99.90;;;;;;4084185;29;20214;-92
2022/10/19 06:29:31;;;;;;;34.67;12.27;;;10.70;99.90;;;;;;4100259;28;20183;-92
2022/10/19 06:31:35;;;;;;;27.63;11.80;;;10.80;99.90;;;;;;4100071;28;20265;-93
2022/10/19 06:33:37;;;;;;;28.23;12.63;;;10.90;99.90;;;;;;4084341;29;20241;-91
2022/10/19 06:35:41;;;;;;;27.93;12.57;;;10.90;99.90;;;;;;4100329;28;20202;-91
2022/10/19 06:37:42;;;;;;;29.27;11.37;;;11.00;99.90;;;;;;4100047;29;20174;-92
2022/10/19 06:39:42;;;;;;;30.67;12.87;;;11.00;99.90;;;;;;4084132;28;20648;-93
2022/10/19 06:41:43;;;;;;;30.47;12.13;;;11.00;99.90;;;;;;4099966;28;20195;-92
2022/10/19 06:43:53;;;;;;;33.77;11.70;;;10.90;99.90;;;;;;4085078;29;20242;-92
2022/10/19 06:45:54;;;;;;;32.33;11.87;;;10.70;99.90;;;;;;4084344;29;20186;-92
2022/10/19 06:47:55;;;;;;;25.73;12.43;;;10.70;99.90;;;;;;4099896;29;20214;-94
2022/10/19 06:49:58;;;;;;;27.87;12.30;;;10.70;99.90;;;;;;4084154;29;20207;-93
2022/10/19 06:51:59;;;;;;;32.07;12.30;;;10.70;99.90;;;;;;4083969;28;20628;-94
2022/10/19 06:54:00;;;;;;;29.57;11.90;;;10.80;99.90;;;;;;4099852;29;20186;-92
2022/10/19 06:56:02;;;;;;;30.70;12.17;;;10.90;99.90;;;;;;4084043;29;20241;-92
2022/10/19 06:58:03;;;;;;;31.67;12.67;;;10.90;99.90;;;;;;4084042;28;20178;-93
2022/10/19 07:00:06;;;;;;;30.73;11.73;;;10.90;99.90;;;;;;4099755;29;20182;-92
2022/10/19 07:02:06;;;;;;;31.80;13.13;;;10.80;99.90;;;;;;4083978;29;20706;-91
2022/10/19 07:04:07;;;;;;;27.37;11.80;;;10.90;99.90;;;;;;4099975;28;20214;-93
2022/10/19 07:06:10;;;;;;;26.47;13.13;;;10.90;99.90;;;;;;4084166;29;20175;-92
2022/10/19 07:08:11;;;;;;;34.40;13.97;;;10.90;99.90;;;;;;4099972;28;20617;-93
2022/10/19 07:10:11;;;;;;;31.47;13.40;;;10.70;99.90;;;;;;4084070;29;20179;-92
2022/10/19 07:12:12;;;;;;;25.73;12.77;;;10.80;99.90;;;;;;4100018;28;20209;-94
2022/10/19 07:14:13;;;;;;;34.37;13.00;;;10.60;99.90;;;;;;4099777;29;20179;-92
2022/10/19 07:16:16;;;;;;;31.10;12.50;;;10.70;99.90;;;;;;4084314;29;20262;-91
2022/10/19 07:18:17;;;;;;;26.40;12.13;;;11.00;99.90;;;;;;4084057;29;20572;-91
2022/10/19 07:20:17;;;;;;;24.38;12.63;;;11.10;99.90;;;;;;4099648;28;20210;-92
2022/10/19 07:22:18;;;;;;;32.23;12.33;;;11.20;99.90;;;;;;4083928;29;20207;-91
2022/10/19 07:24:19;;;;;;;23.65;12.00;;;11.30;99.90;;;;;;4099690;29;20628;-92
2022/10/19 07:26:25;;;;;;;30.97;12.53;;;11.30;99.90;;;;;;4084019;29;20274;-92
2022/10/19 07:28:27;;;;;;;25.67;12.52;;;11.30;99.90;;;;;;4083837;28;20222;-92
2022/10/19 07:30:28;;;;;;;27.03;12.27;;;11.40;99.90;;;;;;4086825;29;20180;-92
2022/10/19 07:32:28;;;;;;;27.40;12.40;;;11.30;99.90;;;;;;4086622;29;20203;-92
2022/10/19 07:34:29;;;;;;;23.00;11.63;;;11.30;99.90;;;;;;4086809;29;20176;-93
2022/10/19 07:36:32;;;;;;;28.93;11.70;;;11.50;99.90;;;;;;4086630;29;20183;-92
2022/10/19 07:38:33;;;;;;;25.60;11.00;;;11.40;99.90;;;;;;4086560;29;20171;-92
2022/10/19 07:40:34;;;;;;;32.13;12.10;;;11.30;99.90;;;;;;4086624;29;20528;-92
2022/10/19 07:42:36;;;;;;;27.58;11.75;;;11.30;99.90;;;;;;4087849;28;20176;-91
2022/10/19 07:44:37;;;;;;;20.67;10.95;;;11.20;99.90;;;;;;4087536;29;20175;-92
2022/10/19 07:46:38;;;;;;;28.00;11.00;;;11.40;99.90;;;;;;4102753;29;20175;-91
2022/10/19 07:48:39;;;;;;;23.83;11.50;;;11.40;99.90;;;;;;4086828;29;20226;-92
2022/10/19 07:50:39;;;;;;;25.73;11.70;;;11.50;99.90;;;;;;4102449;28;20202;-91
2022/10/19 07:52:40;;;;;;;31.63;11.27;;;11.70;99.90;;;;;;4086964;29;20176;-91
2022/10/19 07:54:41;;;;;;;24.25;10.80;;;12.00;99.90;;;;;;4086966;29;20174;-92
2022/10/19 07:56:41;;;;;;;32.47;11.30;;;12.00;99.90;;;;;;4102578;28;20250;-93
2022/10/19 07:58:43;;;;;;;23.75;9.65;;;12.10;99.90;;;;;;4102195;29;20190;-93
2022/10/19 08:00:44;;;;;;;24.67;9.40;;;12.40;99.90;;;;;;4086094;29;20282;-92
2022/10/19 08:02:45;;;;;;;21.55;8.80;;;12.60;99.90;;;;;;4102174;28;20194;-92
2022/10/19 08:04:45;;;;;;;25.80;9.07;;;12.70;99.90;;;;;;4086109;29;20163;-92
2022/10/19 08:06:46;;;;;;;27.80;9.80;;;12.70;99.90;;;;;;4101845;29;20281;-92
2022/10/19 08:08:48;;;;;;;20.63;8.70;;;12.60;99.90;;;;;;4086316;29;20235;-92
2022/10/19 08:10:48;;;;;;;26.17;10.02;;;12.70;99.90;;;;;;4086014;29;20204;-92
2022/10/19 08:12:49;;;;;;;23.95;9.15;;;12.70;99.90;;;;;;4086094;29;20658;-93
2022/10/19 08:14:50;;;;;;;25.20;10.98;;;12.80;99.90;;;;;;4102055;28;20210;-92
2022/10/19 08:16:50;;;;;;;19.88;9.27;;;12.80;99.90;;;;;;4086113;29;20179;-93
2022/10/19 08:18:54;;;;;;;25.88;10.00;;;12.60;99.90;;;;;;4102081;28;20233;-92
2022/10/19 08:20:55;;;;;;;20.95;8.93;;;12.70;99.90;;;;;;4102027;28;20282;-92
2022/10/19 08:22:56;;;;;;;25.73;9.70;;;12.70;99.90;;;;;;4101853;29;20219;-92
2022/10/19 08:24:56;;;;;;;19.60;8.55;;;12.90;99.90;;;;;;4086343;29;20230;-94
2022/10/19 08:26:57;;;;;;;23.20;9.18;;;13.00;99.90;;;;;;4101744;29;20191;-92
2022/10/19 08:29:00;;;;;;;23.48;9.18;;;13.00;99.90;;;;;;4085953;29;20647;-92
2022/10/19 08:31:13;;;;;;;19.63;8.90;;;13.20;99.90;;;;;;4086001;29;20206;-93
2022/10/19 08:33:14;;;;;;;19.95;8.95;;;13.40;99.90;;;;;;4086100;29;20179;-92
2022/10/19 08:35:14;;;;;;;20.42;8.77;;;13.80;99.90;;;;;;4086002;29;20255;-93
2022/10/19 08:37:15;;;;;;;22.10;8.70;;;14.00;99.90;;;;;;4101595;29;20179;-93
2022/10/19 08:39:17;;;;;;;18.85;8.13;;;14.20;99.90;;;;;;4085905;29;20171;-94
2022/10/19 08:41:30;;;;;;;25.00;8.93;;;14.10;99.90;;;;;;4085380;29;20204;-92
2022/10/19 08:43:52;;;;;;;19.55;8.10;;;14.20;99.90;;;;;;4085783;29;20175;-93
2022/10/19 08:46:01;;;;;;;25.05;8.48;;;14.10;99.90;;;;;;4085611;29;20183;-93
2022/10/19 08:48:31;;;;;;;21.75;7.68;;;14.00;99.90;;;;;;4101453;28;20218;-92
2022/10/19 08:50:42;;;;;;;20.05;7.72;;;14.40;99.90;;;;;;4101577;28;20175;-92
2022/10/19 08:52:48;;;;;;;23.40;7.80;;;14.50;99.90;;;;;;4085801;29;20174;-92
2022/10/19 08:54:53;;;;;;;21.17;7.95;;;14.70;99.90;;;;;;4085788;29;20278;-93
2022/10/19 08:57:06;;;;;;;16.63;7.85;;;14.60;99.90;;;;;;4085615;29;20216;-92
2022/10/19 08:59:24;;;;;;;16.10;7.22;;;14.90;99.90;;;;;;4085567;29;20636;-92
2022/10/19 09:01:43;;;;;;;17.98;7.32;;;14.40;99.90;;;;;;4085589;29;20624;-92
2022/10/19 09:04:02;;;;;;;17.52;6.85;;;14.30;99.90;;;;;;4085346;29;20176;-94
2022/10/19 09:06:11;;;;;;;18.75;7.45;;;14.40;99.90;;;;;;4085433;29;20234;-93
2022/10/19 09:08:12;;;;;;;20.83;7.75;;;14.70;99.90;;;;;;4085303;29;20751;-92
2022/10/19 09:10:13;;;;;;;26.98;8.43;;;14.90;99.90;;;;;;4085383;29;20687;-93
2022/10/19 09:12:19;;;;;;;19.38;7.68;;;15.20;99.90;;;;;;4101156;29;20260;-93
2022/10/19 09:14:35;;;;;;;15.18;7.25;;;15.00;99.90;;;;;;4085635;29;20175;-92
2022/10/19 09:16:36;;;;;;;17.55;7.07;;;14.70;99.90;;;;;;4101304;29;20246;-93
2022/10/19 09:18:36;;;;;;;18.52;7.35;;;14.90;99.90;;;;;;4101351;28;20659;-92
2022/10/19 09:20:41;;;;;;;20.27;7.10;;;15.20;99.90;;;;;;4085661;29;20200;-94
2022/10/19 09:22:43;;;;;;;17.33;7.50;;;15.40;99.90;;;;;;4086010;29;20260;-93
2022/10/19 09:24:50;;;;;;;18.17;7.55;;;15.40;99.90;;;;;;4085105;29;20655;-94
2022/10/19 09:26:54;;;;;;;20.58;8.02;;;15.40;99.90;;;;;;4084945;29;20194;-93
2022/10/19 09:28:55;;;;;;;18.00;8.75;;;15.30;99.90;;;;;;4084978;29;20679;-92
2022/10/19 09:30:57;;;;;;;22.23;8.80;;;15.30;99.90;;;;;;4085081;29;20191;-92
2022/10/19 09:33:00;;;;;;;20.08;8.55;;;15.00;99.90;;;;;;4085306;29;20190;-92
2022/10/19 09:35:04;;;;;;;26.73;8.93;;;14.70;99.90;;;;;;4085109;29;20211;-92
2022/10/19 09:37:05;;;;;;;17.30;8.40;;;14.60;99.90;;;;;;4084877;29;20175;-94
2022/10/19 09:39:08;;;;;;;19.30;8.38;;;14.50;99.90;;;;;;4085046;29;20175;-92
2022/10/19 09:41:21;;;;;;;20.98;8.88;;;14.40;99.90;;;;;;4084940;29;20238;-94
2022/10/19 09:43:23;;;;;;;15.55;8.98;;;14.40;99.90;;;;;;4100538;28;20638;-93
2022/10/19 09:45:52;;;;;;;24.05;9.18;;;14.50;99.90;;;;;;4085124;29;20209;-93
2022/10/19 09:47:53;;;;;;;25.42;9.75;;;14.50;99.90;;;;;;4084987;29;20561;-92
2022/10/19 09:50:05;;;;;;;24.58;9.23;;;14.40;99.90;;;;;;4084733;28;20210;-93
2022/10/19 09:52:33;;;;;;;19.52;9.07;;;14.40;99.90;;;;;;4084132;29;20214;-93
2022/10/19 09:54:36;;;;;;;25.25;9.30;;;14.30;99.90;;;;;;4084996;29;20211;-93
2022/10/19 09:56:39;;;;;;;20.55;9.27;;;14.30;99.90;;;;;;4084752;29;20176;-93
2022/10/19 09:58:49;;;;;;;22.27;9.40;;;14.30;99.90;;;;;;4084605;29;20250;-94
2022/10/19 10:00:54;;;;;;;27.40;9.77;;;14.60;99.90;;;;;;4084718;29;20660;-91
2022/10/19 10:02:56;;;;;;;23.10;9.23;;;14.70;99.90;;;;;;4084655;29;20175;-94
2022/10/19 10:05:03;;;;;;;17.25;9.02;;;14.70;99.90;;;;;;4100668;29;20229;-93
2022/10/19 10:07:04;;;;;;;21.77;9.77;;;14.80;99.90;;;;;;4084438;29;20179;-93
2022/10/19 10:09:05;;;;;;;19.05;8.43;;;14.80;99.90;;;;;;4100461;28;20714;-92
2022/10/19 10:11:15;;;;;;;20.10;8.75;;;14.70;99.90;;;;;;4084277;29;20210;-93
2022/10/19 10:13:22;;;;;;;22.85;8.10;;;14.80;99.90;;;;;;4084521;29;20179;-91
2022/10/19 10:15:34;;;;;;;18.23;9.20;;;14.80;99.90;;;;;;4100469;28;20209;-93
2022/10/19 10:17:36;;;;;;;25.42;9.25;;;14.80;99.90;;;;;;4084780;29;20187;-93
2022/10/19 10:20:01;;;;;;;23.83;8.65;;;14.80;99.90;;;;;;4100217;28;20221;-94
2022/10/19 10:22:03;;;;;;;25.55;9.50;;;14.90;99.90;;;;;;4084479;29;20684;-92
2022/10/19 10:24:17;;;;;;;19.92;8.82;;;15.00;99.90;;;;;;4084408;29;20207;-93
2022/10/19 10:26:18;;;;;;;19.92;8.38;;;15.20;99.90;;;;;;4110222;23;20219;-88
2022/10/19 10:28:23;;;;;;;20.25;8.75;;;15.30;99.90;;;;;;4084317;29;20203;-88
2022/10/19 10:30:25;;;;;;;21.05;9.35;;;15.50;99.90;;;;;;4084200;29;20270;-92
2022/10/19 10:32:27;;;;;;;21.95;8.88;;;15.50;99.90;;;;;;4068646;29;20184;-89
2022/10/19 10:34:30;;;;;;;29.27;9.18;;;15.40;99.90;;;;;;4084308;29;20561;-88